Search for airport 
image banner adimage banner adimage banner ad
image banner ad

A24 - California Pines

Located in Alturas, United States

ICAO - A24, IATA -

Data provided by Airmate  

General information

Coordinates: N41°24'44" W120°41'2"
Elevation is 4389 feet MSL.
Magnetic variation is 17° East
View others Airports in California

Operational data

Special qualification required
Current time UTC:
Current local time:
Weather at : KAAT - Alturas Muni ( 13 km )
METAR: KAAT 211255Z AUTO 00000KT 10SM CLR 09/01 A3007 RMK AO2 SLP136 T00940006
View NOTAMs / SUP AIP / TFR affecting this airport [VIEW]
Communications frequencies: [VIEW]

Runways:

RWY identifierQFULength (ft)Width (ft)SurfaceLDA (ft)
05415960ASPH
23415960ASPH

Airport contact information

Address: Alturas United States

Satellite view of A24